Time;durP1;ratioP1;P1;durP2;ratioP2;P2;SDS_P1;SDS_P2;PMS_P1;PMS_P2;Temp;Humidity;BMP_temperature;BMP_pressure;BME280_temperature;BME280_humidity;BME280_pressure;Samples;Min_cycle;Max_cycle;Signal;HPM_P1;HPM_P2
2024/02/24 00:01:18;;;;;;;3.25;2.40;;;3.00;99.70;;;;;;5031716;28;20603;-78
2024/02/24 00:03:45;;;;;;;3.00;2.65;;;3.20;99.60;;;;;;5044872;28;20772;-78
2024/02/24 00:06:12;;;;;;;3.00;2.80;;;3.10;99.70;;;;;;5047958;28;20194;-78
2024/02/24 00:08:38;;;;;;;3.10;2.90;;;3.20;99.70;;;;;;5047465;28;20192;-78
2024/02/24 00:11:05;;;;;;;3.92;2.45;;;3.00;99.40;;;;;;5033671;28;20650;-78
2024/02/24 00:13:32;;;;;;;4.70;2.05;;;3.20;99.90;;;;;;5047850;28;20725;-78
2024/02/24 00:15:59;;;;;;;7.60;2.88;;;3.20;99.90;;;;;;5036017;28;20223;-78
2024/02/24 00:18:27;;;;;;;4.07;2.83;;;3.20;99.40;;;;;;5043772;28;20191;-78
2024/02/24 00:20:54;;;;;;;3.67;2.50;;;3.30;99.70;;;;;;5045285;28;20200;-78
2024/02/24 00:23:20;;;;;;;5.80;2.78;;;3.40;99.60;;;;;;5048229;28;20286;-78
2024/02/24 00:25:47;;;;;;;3.42;3.00;;;3.50;99.90;;;;;;5030095;28;20560;-78
2024/02/24 00:28:14;;;;;;;2.60;2.40;;;3.50;99.00;;;;;;5048227;28;20248;-78
2024/02/24 00:30:41;;;;;;;3.20;2.90;;;3.90;99.90;;;;;;5044785;28;20206;-79
2024/02/24 00:33:07;;;;;;;3.55;2.33;;;3.40;99.20;;;;;;5037138;28;20200;-80
2024/02/24 00:35:35;;;;;;;2.42;2.03;;;3.40;99.30;;;;;;5035372;28;20594;-78
2024/02/24 00:38:02;;;;;;;4.10;2.33;;;3.40;99.30;;;;;;5047957;28;20278;-79
2024/02/24 00:40:29;;;;;;;4.90;3.22;;;3.40;99.50;;;;;;5040495;28;20194;-78
2024/02/24 00:42:56;;;;;;;2.65;2.13;;;3.50;99.20;;;;;;5046498;28;20198;-79
2024/02/24 00:45:23;;;;;;;4.82;3.58;;;3.90;99.90;;;;;;5047372;28;20590;-78
2024/02/24 00:47:49;;;;;;;3.03;2.72;;;3.40;99.20;;;;;;5046597;28;20528;-78
2024/02/24 00:50:16;;;;;;;2.58;2.38;;;3.50;99.20;;;;;;5039302;28;20272;-79
2024/02/24 00:52:45;;;;;;;2.70;2.50;;;3.50;98.90;;;;;;5047171;28;20286;-78
2024/02/24 00:55:11;;;;;;;3.67;2.20;;;3.50;99.00;;;;;;5043854;28;20199;-79
2024/02/24 00:57:38;;;;;;;2.83;2.20;;;3.50;99.00;;;;;;5044754;28;20547;-79
2024/02/24 01:00:06;;;;;;;3.33;2.53;;;3.40;99.00;;;;;;5044009;28;20571;-78
2024/02/24 01:02:33;;;;;;;2.50;2.30;;;3.20;99.90;;;;;;5044647;28;20597;-78
2024/02/24 01:05:00;;;;;;;3.92;2.63;;;3.10;99.30;;;;;;5042564;28;20312;-79
2024/02/24 01:07:28;;;;;;;2.58;2.38;;;3.10;99.40;;;;;;5046039;28;20596;-79
2024/02/24 01:09:57;;;;;;;3.58;2.38;;;3.00;99.50;;;;;;5046450;28;20187;-79
2024/02/24 01:12:25;;;;;;;4.28;3.22;;;2.80;99.70;;;;;;5041317;28;20237;-78
2024/02/24 01:14:53;;;;;;;4.47;3.10;;;2.70;99.90;;;;;;5039208;28;20194;-79
2024/02/24 01:17:20;;;;;;;3.40;3.10;;;2.70;99.90;;;;;;5047522;28;20217;-79
2024/02/24 01:19:47;;;;;;;2.25;1.92;;;2.70;99.90;;;;;;5040614;28;20543;-79
2024/02/24 01:22:14;;;;;;;2.55;2.10;;;2.70;99.90;;;;;;5047782;28;20210;-78
2024/02/24 01:24:41;;;;;;;5.38;2.38;;;3.00;99.90;;;;;;5046369;28;20569;-79
2024/02/24 01:27:09;;;;;;;2.72;2.45;;;2.80;99.90;;;;;;5046445;28;20201;-79
2024/02/24 01:29:36;;;;;;;3.25;2.60;;;2.70;99.90;;;;;;5046998;28;20352;-79
2024/02/24 01:32:03;;;;;;;4.32;2.40;;;2.80;99.90;;;;;;5032844;28;20199;-79
2024/02/24 01:34:29;;;;;;;2.70;2.00;;;2.90;99.90;;;;;;5031078;28;20290;-78
2024/02/24 01:36:56;;;;;;;2.95;2.28;;;2.70;99.90;;;;;;5036798;28;20190;-79
2024/02/24 01:39:23;;;;;;;3.20;2.50;;;2.60;99.90;;;;;;5032911;28;20524;-78
2024/02/24 01:41:50;;;;;;;2.70;2.50;;;2.70;99.90;;;;;;5049310;28;20192;-78
2024/02/24 01:44:19;;;;;;;1.90;1.70;;;2.80;99.90;;;;;;5050956;28;20221;-78
2024/02/24 01:46:46;;;;;;;2.58;2.13;;;2.90;99.90;;;;;;5049426;28;20726;-79
2024/02/24 01:49:13;;;;;;;1.80;1.70;;;3.00;99.90;;;;;;5040539;28;20217;-79
2024/02/24 01:51:40;;;;;;;3.08;1.70;;;3.00;99.90;;;;;;5040188;28;20190;-78
2024/02/24 01:54:07;;;;;;;2.38;1.70;;;3.10;99.90;;;;;;5034618;28;20567;-79
2024/02/24 01:56:36;;;;;;;2.55;2.30;;;3.20;99.90;;;;;;5049652;28;20190;-78
2024/02/24 01:59:03;;;;;;;2.08;1.88;;;3.40;99.90;;;;;;5051362;28;20199;-79
2024/02/24 02:01:31;;;;;;;3.40;1.85;;;3.40;99.90;;;;;;5037809;28;20199;-78
2024/02/24 02:03:58;;;;;;;1.92;1.73;;;3.50;99.90;;;;;;5036948;28;20199;-79
2024/02/24 02:06:28;;;;;;;2.08;1.98;;;3.50;99.90;;;;;;5040230;28;20229;-78
2024/02/24 02:08:55;;;;;;;1.80;1.65;;;3.60;99.80;;;;;;5049977;28;20218;-79
2024/02/24 02:11:25;;;;;;;2.20;1.95;;;3.60;99.70;;;;;;5051369;28;20213;-79
2024/02/24 02:13:53;;;;;;;2.50;1.83;;;3.70;99.90;;;;;;5043395;28;20230;-79
2024/02/24 02:16:21;;;;;;;4.72;2.00;;;3.90;99.90;;;;;;5046090;28;20208;-78
2024/02/24 02:18:49;;;;;;;3.13;1.58;;;3.80;99.90;;;;;;5051085;28;20199;-78
2024/02/24 02:21:18;;;;;;;2.42;1.92;;;3.90;99.90;;;;;;5049369;28;20276;-79
2024/02/24 02:23:49;;;;;;;2.15;1.77;;;3.80;99.90;;;;;;5050180;28;20222;-78
2024/02/24 02:26:18;;;;;;;3.00;1.30;;;3.90;99.90;;;;;;5047986;28;20207;-78
2024/02/24 02:28:45;;;;;;;3.80;1.60;;;3.80;99.90;;;;;;5047541;28;20203;-79
2024/02/24 02:31:14;;;;;;;1.85;1.50;;;3.80;99.90;;;;;;5047813;28;20207;-79
2024/02/24 02:33:42;;;;;;;1.80;1.20;;;4.20;99.90;;;;;;5049944;28;20195;-78
2024/02/24 02:36:09;;;;;;;1.27;1.17;;;3.90;99.90;;;;;;5042781;28;20206;-79
2024/02/24 02:38:37;;;;;;;1.60;1.50;;;4.10;99.90;;;;;;5035593;28;20217;-79
2024/02/24 02:41:07;;;;;;;1.50;1.40;;;3.70;99.90;;;;;;5045373;28;20685;-78
2024/02/24 02:43:34;;;;;;;1.60;1.50;;;3.70;99.90;;;;;;5040178;28;20207;-79
2024/02/24 02:46:02;;;;;;;1.77;1.25;;;3.80;99.90;;;;;;5042883;28;20231;-78
2024/02/24 02:48:30;;;;;;;1.42;1.05;;;3.70;99.90;;;;;;5049746;28;20681;-78
2024/02/24 02:50:58;;;;;;;1.40;1.30;;;3.70;99.90;;;;;;5049929;28;20597;-78
2024/02/24 02:53:26;;;;;;;1.70;1.60;;;3.80;99.90;;;;;;5050652;28;20199;-78
2024/02/24 02:55:54;;;;;;;1.30;1.20;;;3.60;99.90;;;;;;5047837;28;21345;-78
2024/02/24 02:58:23;;;;;;;2.47;1.20;;;3.50;99.90;;;;;;5050602;28;20562;-79
2024/02/24 03:00:51;;;;;;;2.42;1.52;;;3.60;99.90;;;;;;5050081;28;20657;-79
2024/02/24 03:03:18;;;;;;;1.27;1.13;;;3.60;99.90;;;;;;5049411;28;20297;-78
2024/02/24 03:05:45;;;;;;;1.60;1.45;;;3.60;99.90;;;;;;5048832;28;20693;-78
2024/02/24 03:08:12;;;;;;;1.00;1.00;;;3.70;99.90;;;;;;5041152;28;20287;-79
2024/02/24 03:10:39;;;;;;;1.90;0.95;;;3.70;99.90;;;;;;5043209;28;20742;-79
2024/02/24 03:13:06;;;;;;;2.00;1.27;;;3.80;99.90;;;;;;5043522;28;20215;-78
2024/02/24 03:15:35;;;;;;;1.52;1.42;;;3.80;99.90;;;;;;5047900;28;20706;-78
2024/02/24 03:18:03;;;;;;;1.25;1.15;;;3.80;99.90;;;;;;5039866;28;20200;-78
2024/02/24 03:20:29;;;;;;;1.42;1.30;;;3.80;99.90;;;;;;5046243;28;20195;-78
2024/02/24 03:22:56;;;;;;;1.38;1.08;;;3.80;99.90;;;;;;5029372;28;20729;-78
2024/02/24 03:25:23;;;;;;;3.80;1.55;;;4.00;99.90;;;;;;5043532;28;20678;-78
2024/02/24 03:27:50;;;;;;;1.73;0.60;;;3.90;99.90;;;;;;5040547;28;20677;-79
2024/02/24 03:30:17;;;;;;;1.75;1.55;;;3.90;99.90;;;;;;5048169;28;20650;-78
2024/02/24 03:32:45;;;;;;;1.30;0.95;;;3.90;99.90;;;;;;5032263;28;20282;-79
2024/02/24 03:35:11;;;;;;;1.55;1.15;;;4.20;99.90;;;;;;5035895;28;20609;-79
2024/02/24 03:37:38;;;;;;;1.63;1.20;;;4.00;99.90;;;;;;5046594;28;20294;-78
2024/02/24 03:40:06;;;;;;;1.00;1.00;;;3.90;99.90;;;;;;5047860;28;20221;-79
2024/02/24 03:42:34;;;;;;;1.30;1.02;;;3.90;99.90;;;;;;5037561;28;20647;-79
2024/02/24 03:45:01;;;;;;;0.60;0.60;;;3.90;99.90;;;;;;5038664;28;20665;-78
2024/02/24 03:47:28;;;;;;;1.42;1.30;;;3.80;99.90;;;;;;5029046;28;20629;-79
2024/02/24 03:49:56;;;;;;;1.50;1.15;;;3.70;99.90;;;;;;5046987;28;20237;-78
2024/02/24 03:52:22;;;;;;;1.40;1.10;;;3.70;99.90;;;;;;5048826;28;20196;-79
2024/02/24 03:54:49;;;;;;;0.90;0.90;;;3.70;99.90;;;;;;5043802;28;20657;-79
2024/02/24 03:57:16;;;;;;;2.35;1.15;;;3.70;99.90;;;;;;5039159;28;20552;-79
2024/02/24 03:59:43;;;;;;;1.50;1.23;;;3.60;99.90;;;;;;5039360;28;20208;-79
2024/02/24 04:02:10;;;;;;;1.63;1.10;;;3.50;99.90;;;;;;5037800;28;20203;-78
2024/02/24 04:04:37;;;;;;;2.40;1.35;;;3.50;99.90;;;;;;5045806;28;20635;-79
2024/02/24 04:07:06;;;;;;;1.35;1.20;;;3.40;99.90;;;;;;5048277;28;20567;-78
2024/02/24 04:09:32;;;;;;;1.73;1.15;;;3.30;99.90;;;;;;5041851;28;20197;-78
2024/02/24 04:11:59;;;;;;;1.40;1.05;;;3.40;99.90;;;;;;5041426;28;20197;-79
2024/02/24 04:14:26;;;;;;;0.73;0.70;;;3.30;99.90;;;;;;5034235;28;20230;-79
2024/02/24 04:16:54;;;;;;;3.10;0.98;;;3.20;99.90;;;;;;5044133;28;20195;-78
2024/02/24 04:19:20;;;;;;;1.75;1.13;;;3.20;99.90;;;;;;5042623;28;20462;-79
2024/02/24 04:21:47;;;;;;;1.30;1.20;;;3.30;99.90;;;;;;5047744;28;20195;-78
2024/02/24 04:24:15;;;;;;;1.00;1.00;;;3.20;99.90;;;;;;5045573;28;20289;-78
2024/02/24 04:26:42;;;;;;;1.60;1.30;;;3.30;99.90;;;;;;5047607;28;20226;-78
2024/02/24 04:29:09;;;;;;;1.40;1.30;;;3.20;99.90;;;;;;5048488;28;20207;-78
2024/02/24 04:31:36;;;;;;;0.80;0.80;;;3.40;99.90;;;;;;5040015;28;20281;-79
2024/02/24 04:34:02;;;;;;;0.77;0.77;;;3.30;99.90;;;;;;5048296;28;20202;-78
2024/02/24 04:36:29;;;;;;;1.60;1.10;;;3.40;99.90;;;;;;5039639;28;20205;-78
2024/02/24 04:38:56;;;;;;;1.30;0.98;;;3.40;99.90;;;;;;5039490;28;20209;-79
2024/02/24 04:41:24;;;;;;;1.05;0.95;;;3.50;99.90;;;;;;5039516;28;20202;-79
2024/02/24 04:43:51;;;;;;;2.97;1.15;;;3.70;99.90;;;;;;5042577;28;20207;-79
2024/02/24 04:46:18;;;;;;;0.80;0.80;;;3.70;99.90;;;;;;5038964;28;20237;-79
2024/02/24 04:48:44;;;;;;;1.20;0.98;;;3.70;99.90;;;;;;5047393;28;21842;-78
2024/02/24 04:51:11;;;;;;;1.20;1.05;;;3.60;99.90;;;;;;5031226;28;20202;-79
2024/02/24 04:53:38;;;;;;;1.38;0.90;;;3.50;99.90;;;;;;5044269;28;20652;-79
2024/02/24 04:56:05;;;;;;;8.05;1.08;;;3.60;99.90;;;;;;5031643;28;20548;-78
2024/02/24 04:58:33;;;;;;;2.08;1.20;;;3.60;99.90;;;;;;5042895;28;20207;-79
2024/02/24 05:01:00;;;;;;;0.80;0.80;;;3.60;99.90;;;;;;5045729;28;20205;-78
2024/02/24 05:03:27;;;;;;;1.15;1.08;;;3.70;99.90;;;;;;5046761;28;20199;-78
2024/02/24 05:05:54;;;;;;;1.20;1.10;;;3.80;99.90;;;;;;5047924;28;20589;-78
2024/02/24 05:08:20;;;;;;;0.90;0.90;;;3.70;99.90;;;;;;5047158;28;20265;-78
2024/02/24 05:10:47;;;;;;;0.98;0.95;;;3.80;99.90;;;;;;5062377;28;20268;-78
2024/02/24 05:13:14;;;;;;;0.90;0.90;;;3.70;99.90;;;;;;5056797;28;20200;-79
2024/02/24 05:15:42;;;;;;;1.15;1.10;;;3.70;99.90;;;;;;5060929;28;20193;-79
2024/02/24 05:18:09;;;;;;;1.05;0.98;;;3.60;99.90;;;;;;5047280;28;20670;-78
2024/02/24 05:20:36;;;;;;;1.38;1.20;;;3.70;99.90;;;;;;5042733;28;20224;-78
2024/02/24 05:23:03;;;;;;;1.80;1.30;;;3.70;99.90;;;;;;5043421;28;20196;-78
2024/02/24 05:25:30;;;;;;;1.20;1.10;;;3.70;99.90;;;;;;5038288;28;20223;-78
2024/02/24 05:27:58;;;;;;;1.20;1.10;;;3.80;99.90;;;;;;5051826;28;20201;-79
2024/02/24 05:30:24;;;;;;;1.00;0.90;;;3.70;99.90;;;;;;5051997;28;20237;-79
2024/02/24 05:32:53;;;;;;;1.88;1.55;;;3.80;99.90;;;;;;5039295;28;20290;-78
2024/02/24 05:35:19;;;;;;;1.50;1.17;;;3.90;99.90;;;;;;5044692;28;20207;-78
2024/02/24 05:37:46;;;;;;;1.50;1.40;;;3.60;99.90;;;;;;5046502;28;20195;-78
2024/02/24 05:40:15;;;;;;;1.38;1.15;;;4.40;99.90;;;;;;5044283;28;20289;-79
2024/02/24 05:42:42;;;;;;;1.90;1.63;;;3.80;99.90;;;;;;5040806;28;20668;-79
2024/02/24 05:45:10;;;;;;;1.55;1.45;;;3.90;99.90;;;;;;5036169;28;20223;-79
2024/02/24 05:47:37;;;;;;;1.52;1.10;;;3.80;99.90;;;;;;5048078;28;20213;-79
2024/02/24 05:50:05;;;;;;;0.90;0.90;;;3.80;99.90;;;;;;5049466;28;20207;-79
2024/02/24 05:52:32;;;;;;;1.58;1.10;;;3.80;99.90;;;;;;5051710;28;20227;-78
2024/02/24 05:54:59;;;;;;;1.40;1.30;;;3.90;99.90;;;;;;5050989;28;20203;-79
2024/02/24 05:57:26;;;;;;;1.20;1.10;;;4.30;99.90;;;;;;5033177;28;20208;-79
2024/02/24 05:59:53;;;;;;;1.48;1.15;;;3.90;99.90;;;;;;5046337;28;20196;-79
2024/02/24 06:02:19;;;;;;;1.42;1.30;;;3.90;99.90;;;;;;5051037;28;20208;-79
2024/02/24 06:04:46;;;;;;;1.23;1.15;;;3.90;99.90;;;;;;5050877;28;20191;-79
2024/02/24 06:07:14;;;;;;;1.63;1.52;;;3.90;99.90;;;;;;5051311;28;20234;-79
2024/02/24 06:09:41;;;;;;;1.90;1.55;;;4.00;99.90;;;;;;5037961;28;20383;-79
2024/02/24 06:12:08;;;;;;;1.63;1.40;;;3.90;99.90;;;;;;5048869;28;20641;-78
2024/02/24 06:14:35;;;;;;;2.20;1.73;;;4.10;99.90;;;;;;5044512;28;20206;-79
2024/02/24 06:17:02;;;;;;;2.53;1.55;;;4.00;99.90;;;;;;5033722;28;20199;-79
2024/02/24 06:19:29;;;;;;;2.10;1.50;;;3.90;99.90;;;;;;5038464;28;20186;-78
2024/02/24 06:21:55;;;;;;;2.10;1.90;;;4.10;99.90;;;;;;5035649;28;20561;-78
2024/02/24 06:24:23;;;;;;;2.20;2.00;;;4.10;99.90;;;;;;5037655;28;20561;-79
2024/02/24 06:26:50;;;;;;;1.77;1.67;;;4.20;99.90;;;;;;5044467;28;20310;-78
2024/02/24 06:29:17;;;;;;;1.75;1.65;;;4.00;99.90;;;;;;5050087;28;20285;-79
2024/02/24 06:31:44;;;;;;;1.80;1.70;;;4.10;99.90;;;;;;5050328;28;20208;-79
2024/02/24 06:34:10;;;;;;;1.42;1.27;;;4.10;99.90;;;;;;5049881;28;20640;-78
2024/02/24 06:36:37;;;;;;;4.10;1.63;;;4.10;99.90;;;;;;5045751;28;20572;-79
2024/02/24 06:39:05;;;;;;;1.30;1.08;;;4.20;99.90;;;;;;5043042;28;20681;-78
2024/02/24 06:41:33;;;;;;;3.40;1.85;;;4.10;99.90;;;;;;5038422;28;20509;-79
2024/02/24 06:43:59;;;;;;;1.30;1.20;;;4.10;99.90;;;;;;5044482;28;20511;-78
2024/02/24 06:46:26;;;;;;;2.80;1.88;;;4.10;99.90;;;;;;5037017;28;20230;-79
2024/02/24 06:48:53;;;;;;;3.38;1.70;;;4.10;99.90;;;;;;5050105;28;20566;-75
2024/02/24 06:51:20;;;;;;;1.40;1.30;;;4.20;99.90;;;;;;5048490;28;20217;-75
2024/02/24 06:53:47;;;;;;;1.63;1.50;;;4.30;99.90;;;;;;5045413;28;20229;-76
2024/02/24 06:56:14;;;;;;;1.80;1.30;;;4.60;99.90;;;;;;5042087;28;20195;-79
2024/02/24 06:58:42;;;;;;;1.73;1.30;;;4.20;99.90;;;;;;5044223;28;20282;-79
2024/02/24 07:01:09;;;;;;;2.47;1.52;;;4.30;99.90;;;;;;5048296;28;20697;-79
2024/02/24 07:03:37;;;;;;;1.83;1.55;;;4.50;99.90;;;;;;5046982;28;20240;-89
2024/02/24 07:06:04;;;;;;;1.08;1.08;;;4.30;99.90;;;;;;5048390;28;21107;-88
2024/02/24 07:08:32;;;;;;;2.03;1.27;;;4.30;99.90;;;;;;5049155;28;20314;-86
2024/02/24 07:10:59;;;;;;;1.73;1.30;;;4.30;99.90;;;;;;5047386;28;20666;-86
2024/02/24 07:13:26;;;;;;;1.25;0.90;;;4.30;99.90;;;;;;5041866;28;20679;-83
2024/02/24 07:15:54;;;;;;;1.27;1.17;;;4.20;99.90;;;;;;5047613;28;20199;-88
2024/02/24 07:18:21;;;;;;;2.15;1.20;;;4.10;99.90;;;;;;5044570;28;20536;-88
2024/02/24 07:20:48;;;;;;;1.17;1.17;;;4.20;99.90;;;;;;5044753;28;20209;-88
2024/02/24 07:23:14;;;;;;;0.82;0.82;;;5.20;99.90;;;;;;5048275;28;20222;-89
2024/02/24 07:25:41;;;;;;;2.15;1.00;;;4.30;99.90;;;;;;5039206;28;20283;-89
2024/02/24 07:28:08;;;;;;;2.13;1.00;;;4.30;99.90;;;;;;5049847;28;20289;-88
2024/02/24 07:30:38;;;;;;;0.90;0.90;;;4.20;99.90;;;;;;5048126;28;20199;-83
2024/02/24 07:33:06;;;;;;;0.90;0.90;;;4.80;99.90;;;;;;5049114;28;20203;-86
2024/02/24 07:35:33;;;;;;;0.68;0.68;;;5.00;99.90;;;;;;5047914;28;20199;-87
2024/02/24 07:38:01;;;;;;;1.35;0.85;;;4.40;99.90;;;;;;5045871;28;20314;-86
2024/02/24 07:40:28;;;;;;;1.00;1.00;;;4.60;99.90;;;;;;5046674;28;20292;-85
2024/02/24 07:42:58;;;;;;;1.30;0.80;;;4.40;99.90;;;;;;5038316;28;20204;-88
2024/02/24 07:45:25;;;;;;;0.85;0.85;;;4.40;99.90;;;;;;5048263;28;20211;-83
2024/02/24 07:47:52;;;;;;;1.40;0.85;;;4.50;99.90;;;;;;5044208;28;20231;-82
2024/02/24 07:50:20;;;;;;;0.90;0.90;;;4.50;99.90;;;;;;5044388;28;20417;-82
2024/02/24 07:52:47;;;;;;;0.63;0.63;;;5.20;99.90;;;;;;5047984;28;20207;-76
2024/02/24 07:55:14;;;;;;;0.73;0.73;;;4.70;99.90;;;;;;5047499;28;20202;-85
2024/02/24 07:57:41;;;;;;;0.85;0.85;;;4.70;99.90;;;;;;5043839;28;20199;-87
2024/02/24 08:00:09;;;;;;;1.00;0.90;;;4.40;99.90;;;;;;5044611;28;20207;-84
2024/02/24 08:02:36;;;;;;;5.43;0.75;;;4.60;99.90;;;;;;5047838;28;20200;-79
2024/02/24 08:05:04;;;;;;;2.17;1.45;;;4.60;99.90;;;;;;5047759;28;20226;-88
2024/02/24 08:07:32;;;;;;;1.10;1.00;;;4.60;99.90;;;;;;5041625;28;20255;-82
2024/02/24 08:09:59;;;;;;;1.48;0.90;;;4.70;99.90;;;;;;5047558;28;20269;-87
2024/02/24 08:12:25;;;;;;;0.73;0.73;;;4.10;99.90;;;;;;5038777;28;20287;-86
2024/02/24 08:14:52;;;;;;;0.65;0.63;;;5.60;99.90;;;;;;5045996;28;20279;-90
2024/02/24 08:17:19;;;;;;;1.50;0.73;;;4.80;99.90;;;;;;5048114;28;20195;-87
2024/02/24 08:19:46;;;;;;;0.45;0.45;;;4.70;99.90;;;;;;5047796;28;20257;-83
2024/02/24 08:22:13;;;;;;;1.00;0.90;;;4.40;99.90;;;;;;5043664;28;20205;-90
2024/02/24 08:24:42;;;;;;;0.80;0.80;;;4.30;99.90;;;;;;5045741;28;20226;-87
2024/02/24 08:27:08;;;;;;;2.45;0.82;;;4.30;99.90;;;;;;5042698;28;20317;-88
2024/02/24 08:29:35;;;;;;;0.95;0.60;;;4.20;99.90;;;;;;5044124;28;21861;-86
2024/02/24 08:32:02;;;;;;;1.23;1.13;;;4.40;99.90;;;;;;5046405;28;20208;-91
2024/02/24 08:34:29;;;;;;;0.75;0.75;;;4.60;99.90;;;;;;5046937;28;21798;-89
2024/02/24 08:36:56;;;;;;;0.80;0.80;;;5.00;99.90;;;;;;5044814;28;20278;-79
2024/02/24 08:39:22;;;;;;;1.00;0.80;;;5.40;99.90;;;;;;5043056;28;20208;-83
2024/02/24 08:41:51;;;;;;;0.85;0.65;;;5.50;99.90;;;;;;5043409;28;20478;-82
2024/02/24 08:44:17;;;;;;;1.13;1.02;;;5.30;99.90;;;;;;5043528;28;20207;-75
2024/02/24 08:46:44;;;;;;;1.17;0.90;;;5.30;99.80;;;;;;5046120;28;20229;-78
2024/02/24 08:49:11;;;;;;;0.77;0.77;;;5.50;99.80;;;;;;5049458;28;20205;-78
2024/02/24 08:51:37;;;;;;;1.23;1.15;;;5.70;99.50;;;;;;5050706;28;20286;-79
2024/02/24 08:54:04;;;;;;;2.63;1.50;;;5.60;99.90;;;;;;5051505;28;20202;-78
2024/02/24 08:56:31;;;;;;;1.02;0.93;;;5.70;98.70;;;;;;5047237;28;20196;-78
2024/02/24 08:58:59;;;;;;;1.50;0.70;;;5.80;98.70;;;;;;5051418;28;20217;-78
2024/02/24 09:01:27;;;;;;;0.60;0.60;;;6.30;99.90;;;;;;5052373;28;20672;-80
2024/02/24 09:03:55;;;;;;;1.80;0.57;;;5.90;98.00;;;;;;5052913;28;20241;-79
2024/02/24 09:06:22;;;;;;;0.85;0.85;;;6.10;97.80;;;;;;5052919;28;20226;-79
2024/02/24 09:08:48;;;;;;;1.23;1.13;;;6.20;97.60;;;;;;5054148;28;20566;-80
2024/02/24 09:11:15;;;;;;;0.80;0.80;;;6.40;97.60;;;;;;5052667;28;20232;-79
2024/02/24 09:13:42;;;;;;;1.80;1.30;;;6.50;99.90;;;;;;5045106;28;20310;-79
2024/02/24 09:16:16;;;;;;;1.20;0.73;;;6.80;97.20;;;;;;5047319;28;20214;-79
2024/02/24 09:18:42;;;;;;;0.98;0.90;;;6.80;96.60;;;;;;5054813;28;20727;-79
2024/02/24 09:21:09;;;;;;;1.45;0.90;;;7.00;96.80;;;;;;5050130;28;20196;-79
2024/02/24 09:23:36;;;;;;;0.70;0.70;;;7.00;96.20;;;;;;5051640;28;20551;-79
2024/02/24 09:26:03;;;;;;;0.70;0.70;;;6.70;95.30;;;;;;5046776;28;20568;-79
2024/02/24 09:28:30;;;;;;;1.90;0.90;;;6.90;96.10;;;;;;5054190;28;20661;-79
2024/02/24 09:30:57;;;;;;;2.35;0.90;;;7.10;95.90;;;;;;5051795;28;20655;-79
2024/02/24 09:33:25;;;;;;;0.45;0.45;;;7.10;95.70;;;;;;5051889;28;20223;-79
2024/02/24 09:35:52;;;;;;;1.25;0.90;;;6.90;95.60;;;;;;5048483;28;20202;-79
2024/02/24 09:38:19;;;;;;;0.63;0.63;;;7.00;97.10;;;;;;5054391;28;20757;-79
2024/02/24 09:40:45;;;;;;;1.15;0.77;;;7.10;95.10;;;;;;5048055;28;20275;-79
2024/02/24 09:43:13;;;;;;;0.52;0.52;;;7.10;94.30;;;;;;5045656;28;20634;-78
2024/02/24 09:45:46;;;;;;;0.85;0.60;;;7.20;95.00;;;;;;5047624;28;20273;-79
2024/02/24 09:48:13;;;;;;;1.80;0.75;;;7.10;94.30;;;;;;5043998;28;20350;-78
2024/02/24 09:50:41;;;;;;;1.00;0.77;;;7.00;93.90;;;;;;5054351;28;20210;-78
2024/02/24 09:53:08;;;;;;;0.73;0.65;;;7.50;98.60;;;;;;5053755;28;20198;-80
2024/02/24 09:55:36;;;;;;;1.35;0.82;;;7.40;95.00;;;;;;5048518;28;20288;-78
2024/02/24 09:58:06;;;;;;;0.75;0.70;;;7.50;94.50;;;;;;5051539;28;20207;-78
2024/02/24 10:00:33;;;;;;;0.93;0.70;;;7.60;94.20;;;;;;5051485;28;20247;-80
2024/02/24 10:03:00;;;;;;;0.63;0.57;;;7.70;98.70;;;;;;5049433;28;20641;-78
2024/02/24 10:05:27;;;;;;;0.70;0.70;;;7.20;93.90;;;;;;5045587;28;20729;-80
2024/02/24 10:07:55;;;;;;;0.97;0.70;;;7.40;93.00;;;;;;5050982;28;20677;-78
2024/02/24 10:10:26;;;;;;;0.95;0.70;;;7.40;92.00;;;;;;5050010;28;20737;-78
2024/02/24 10:12:57;;;;;;;2.20;0.53;;;7.40;91.90;;;;;;5043141;28;20196;-78
2024/02/24 10:15:24;;;;;;;1.43;0.53;;;7.40;90.90;;;;;;5039851;28;20622;-79
2024/02/24 10:17:54;;;;;;;0.47;0.40;;;7.50;92.10;;;;;;5044395;28;20626;-79
2024/02/24 10:20:21;;;;;;;6.80;1.30;;;7.60;91.50;;;;;;5047625;28;20619;-79
2024/02/24 10:22:47;;;;;;;0.30;0.30;;;7.50;90.90;;;;;;5047430;28;20996;-79
2024/02/24 10:25:16;;;;;;;0.70;0.40;;;7.50;90.20;;;;;;5050159;28;20626;-78
2024/02/24 10:27:44;;;;;;;1.10;0.80;;;7.70;91.00;;;;;;5039148;28;20701;-78
2024/02/24 10:30:11;;;;;;;0.73;0.50;;;7.80;91.20;;;;;;5049959;28;20653;-80
2024/02/24 10:32:39;;;;;;;0.40;0.40;;;8.00;91.60;;;;;;5050555;28;20991;-79
2024/02/24 10:35:18;;;;;;;1.00;0.70;;;8.10;90.70;;;;;;5049340;28;20637;-82
2024/02/24 10:37:45;;;;;;;0.40;0.40;;;8.10;89.90;;;;;;5049710;28;20672;-79
2024/02/24 10:40:13;;;;;;;1.07;0.93;;;8.50;94.20;;;;;;5043732;28;20725;-80
2024/02/24 10:42:41;;;;;;;2.60;0.63;;;8.40;91.30;;;;;;5050344;28;21491;-80
2024/02/24 10:45:10;;;;;;;3.47;1.80;;;8.50;90.60;;;;;;5049652;28;20717;-80
2024/02/24 10:47:37;;;;;;;0.40;0.40;;;8.50;90.60;;;;;;5047466;28;21230;-79
2024/02/24 10:50:05;;;;;;;0.40;0.40;;;8.40;89.20;;;;;;5048473;28;20717;-80
2024/02/24 10:52:33;;;;;;;0.83;0.50;;;8.30;89.50;;;;;;5050014;28;21254;-79
2024/02/24 10:55:02;;;;;;;0.60;0.40;;;8.20;89.10;;;;;;5045310;28;20726;-80
2024/02/24 10:57:30;;;;;;;0.80;0.70;;;8.40;90.10;;;;;;5047142;28;20668;-80
2024/02/24 10:59:59;;;;;;;0.50;0.40;;;8.30;90.10;;;;;;5047808;28;20728;-80
2024/02/24 11:02:28;;;;;;;1.00;0.57;;;8.40;88.60;;;;;;5050478;28;20634;-79
2024/02/24 11:04:59;;;;;;;6.23;0.77;;;8.40;90.50;;;;;;5043122;28;20729;-80
2024/02/24 11:07:33;;;;;;;0.60;0.50;;;8.40;89.80;;;;;;5047309;28;20654;-80
2024/02/24 11:10:00;;;;;;;0.37;0.37;;;8.40;87.00;;;;;;5043228;28;20633;-80
2024/02/24 11:12:28;;;;;;;0.77;0.77;;;8.40;89.20;;;;;;5044095;28;20733;-77
2024/02/24 11:14:55;;;;;;;0.80;0.60;;;8.60;88.60;;;;;;5045670;28;20730;-79
2024/02/24 11:17:48;;;;;;;0.70;0.60;;;8.80;87.10;;;;;;5044235;28;20875;-78
2024/02/24 11:20:53;;;;;;;0.70;0.43;;;8.70;85.40;;;;;;5038450;28;20196;-79
2024/02/24 11:23:21;;;;;;;0.50;0.40;;;8.30;88.40;;;;;;5037895;28;20631;-79
2024/02/24 11:25:48;;;;;;;1.40;0.73;;;8.50;82.20;;;;;;5047379;28;20635;-79
2024/02/24 11:28:20;;;;;;;0.50;0.50;;;8.60;83.20;;;;;;5048458;28;20761;-79
2024/02/24 11:30:51;;;;;;;0.47;0.47;;;8.60;85.10;;;;;;5048217;28;20637;-80
2024/02/24 11:33:28;;;;;;;0.93;0.50;;;8.70;85.90;;;;;;5047839;28;20627;-78
2024/02/24 11:35:56;;;;;;;1.03;0.80;;;8.70;87.50;;;;;;5045107;28;21039;-78
2024/02/24 11:38:25;;;;;;;0.60;0.50;;;8.60;86.80;;;;;;5047733;28;20634;-78
2024/02/24 11:40:52;;;;;;;1.13;0.70;;;8.60;84.20;;;;;;5045798;28;20627;-78
2024/02/24 11:43:20;;;;;;;1.00;0.90;;;8.70;85.60;;;;;;5046645;28;20645;-78
2024/02/24 11:45:47;;;;;;;1.57;0.80;;;8.90;84.40;;;;;;5043888;28;20631;-78
2024/02/24 11:48:17;;;;;;;0.40;0.30;;;9.00;92.10;;;;;;5046565;28;20667;-79
2024/02/24 11:50:46;;;;;;;0.93;0.67;;;9.20;83.60;;;;;;5046129;28;20687;-78
2024/02/24 11:53:15;;;;;;;1.63;1.23;;;9.00;84.40;;;;;;5048545;28;21178;-79
2024/02/24 11:55:41;;;;;;;0.60;0.60;;;9.20;84.60;;;;;;5041294;28;20629;-78
2024/02/24 11:58:09;;;;;;;2.43;1.90;;;9.30;82.20;;;;;;5048786;28;20624;-79
2024/02/24 12:00:41;;;;;;;0.70;0.40;;;9.20;83.90;;;;;;5047001;28;20629;-79
2024/02/24 12:03:11;;;;;;;0.80;0.80;;;9.10;80.70;;;;;;5049031;28;21219;-79
2024/02/24 12:05:38;;;;;;;1.00;0.40;;;;;;;;;;5040229;28;20639;-78
2024/02/24 12:08:10;;;;;;;1.13;0.60;;;8.90;88.90;;;;;;5048828;28;20765;-78
2024/02/24 12:10:38;;;;;;;0.70;0.70;;;9.10;79.50;;;;;;5042213;28;20682;-78
2024/02/24 12:13:06;;;;;;;0.70;0.70;;;9.10;92.60;;;;;;5043758;28;20670;-79
2024/02/24 12:15:39;;;;;;;1.33;0.30;;;9.10;78.90;;;;;;5046316;28;20925;-78
2024/02/24 12:18:06;;;;;;;0.50;0.50;;;9.10;76.30;;;;;;5046742;28;20627;-76
2024/02/24 12:20:36;;;;;;;4.00;0.57;;;9.00;91.50;;;;;;5045860;28;20631;-77
2024/02/24 12:23:04;;;;;;;2.33;1.10;;;9.10;92.60;;;;;;5046522;28;20731;-76
2024/02/24 12:25:32;;;;;;;1.67;0.40;;;9.20;78.60;;;;;;5043769;28;20624;-77
2024/02/24 12:27:59;;;;;;;1.60;0.40;;;9.50;77.50;;;;;;5048300;28;21043;-78
2024/02/24 12:30:27;;;;;;;0.40;0.30;;;9.80;81.40;;;;;;5043443;28;20619;-80
2024/02/24 12:32:54;;;;;;;0.80;0.60;;;9.70;79.00;;;;;;5044983;28;20729;-76
2024/02/24 12:35:23;;;;;;;0.80;0.67;;;9.70;86.30;;;;;;5041554;28;21154;-77
2024/02/24 12:37:52;;;;;;;0.70;0.50;;;9.80;75.80;;;;;;5042732;28;20621;-78
2024/02/24 12:40:29;;;;;;;0.50;0.40;;;9.60;73.20;;;;;;5040416;28;20629;-77
2024/02/24 12:42:58;;;;;;;3.43;0.67;;;9.50;75.90;;;;;;5043099;28;21253;-77
2024/02/24 12:45:26;;;;;;;1.00;0.50;;;9.20;86.90;;;;;;5037009;28;22110;-78
2024/02/24 12:47:52;;;;;;;0.40;0.30;;;9.40;80.70;;;;;;5046129;28;20783;-78
2024/02/24 12:50:21;;;;;;;0.60;0.30;;;9.50;76.60;;;;;;5047299;28;20637;-78
2024/02/24 12:52:48;;;;;;;1.17;0.50;;;9.60;75.50;;;;;;5039704;28;20724;-79
2024/02/24 12:55:17;;;;;;;0.40;0.40;;;9.50;92.00;;;;;;5046006;28;20632;-79
2024/02/24 12:57:44;;;;;;;0.60;0.43;;;9.50;81.60;;;;;;5040701;28;20736;-79
2024/02/24 13:00:13;;;;;;;0.40;0.30;;;9.70;74.90;;;;;;5036408;28;21220;-79